Time;durP1;ratioP1;P1;durP2;ratioP2;P2;SDS_P1;SDS_P2;PMS_P1;PMS_P2;Temp;Humidity;BMP_temperature;BMP_pressure;BME280_temperature;BME280_humidity;BME280_pressure;Samples;Min_cycle;Max_cycle;Signal;HPM_P1;HPM_P2
2022/06/25 00:01:28;;;;;;;46.67;38.50;;;16.20;99.90;;;;;;5075660;28;20038;-47
2022/06/25 00:03:55;;;;;;;43.80;38.45;;;17.10;99.90;;;;;;5076514;28;20124;-46
2022/06/25 00:06:22;;;;;;;50.30;42.28;;;16.70;99.90;;;;;;5077770;28;20069;-46
2022/06/25 00:08:48;;;;;;;49.17;42.28;;;16.90;99.90;;;;;;5076616;28;20322;-44
2022/06/25 00:14:07;;;;;;;44.55;39.67;;;17.20;99.90;;;;;;5076415;28;20469;-46
2022/06/25 00:16:33;;;;;;;50.03;41.88;;;16.30;99.90;;;;;;5076469;28;20039;-45
2022/06/25 00:18:59;;;;;;;53.83;44.05;;;16.40;99.90;;;;;;5075729;28;20576;-46
2022/06/25 00:21:25;;;;;;;52.17;44.53;;;16.20;99.90;;;;;;5076656;28;20048;-44
2022/06/25 00:23:51;;;;;;;50.28;43.92;;;16.60;99.90;;;;;;5075253;28;20044;-45
2022/06/25 00:26:16;;;;;;;43.55;39.13;;;18.60;99.90;;;;;;5075731;28;20431;-47
2022/06/25 00:28:42;;;;;;;49.03;43.67;;;16.40;99.90;;;;;;5075358;28;20915;-46
2022/06/25 00:31:08;;;;;;;50.60;43.08;;;18.00;99.90;;;;;;5074834;28;20090;-43
2022/06/25 00:33:33;;;;;;;43.65;38.90;;;16.50;99.90;;;;;;5075394;28;20124;-43
2022/06/25 00:36:02;;;;;;;41.95;37.63;;;16.50;99.90;;;;;;5073985;28;20036;-47
2022/06/25 00:38:28;;;;;;;52.60;45.05;;;16.40;99.90;;;;;;5072642;28;20136;-46
2022/06/25 00:40:54;;;;;;;47.58;42.47;;;18.30;99.90;;;;;;5075093;28;20508;-47
2022/06/25 00:43:19;;;;;;;46.33;41.17;;;16.60;99.90;;;;;;5074252;28;20032;-47
2022/06/25 00:45:45;;;;;;;47.63;42.45;;;17.60;99.90;;;;;;5074002;28;20068;-46
2022/06/25 00:48:11;;;;;;;47.10;41.70;;;16.40;99.90;;;;;;5074631;28;20044;-46
2022/06/25 00:50:37;;;;;;;44.90;40.17;;;17.00;99.90;;;;;;5076308;28;20189;-47
2022/06/25 00:53:04;;;;;;;42.72;38.22;;;16.30;99.90;;;;;;5074759;28;20035;-46
2022/06/25 00:55:37;;;;;;;50.13;41.83;;;16.40;99.90;;;;;;5074550;28;20204;-47
2022/06/25 00:58:08;;;;;;;42.42;37.90;;;16.20;99.90;;;;;;5074265;28;20057;-47
2022/06/25 01:00:33;;;;;;;41.28;36.97;;;17.70;99.90;;;;;;5073652;28;20044;-46
2022/06/25 01:02:59;;;;;;;47.00;41.60;;;16.60;99.90;;;;;;5074379;28;20043;-47
2022/06/25 01:05:25;;;;;;;41.50;37.13;;;16.70;99.90;;;;;;5077099;28;20135;-48
2022/06/25 01:07:50;;;;;;;41.45;37.00;;;16.20;99.90;;;;;;5073781;28;20361;-48
2022/06/25 01:10:17;;;;;;;44.38;38.42;;;16.30;99.90;;;;;;5074262;28;20055;-47
2022/06/25 01:12:42;;;;;;;39.55;35.45;;;16.20;99.90;;;;;;5074828;28;20101;-47
2022/06/25 01:15:15;;;;;;;42.33;37.78;;;16.30;99.90;;;;;;5075098;28;20044;-48
2022/06/25 01:17:46;;;;;;;38.65;34.80;;;16.00;99.90;;;;;;5075424;28;20101;-48
2022/06/25 01:20:13;;;;;;;41.58;37.15;;;16.30;99.90;;;;;;5075585;28;20052;-48
2022/06/25 01:22:39;;;;;;;40.50;36.17;;;18.40;99.90;;;;;;5075875;28;20064;-45
2022/06/25 01:25:08;;;;;;;36.05;32.40;;;18.60;99.90;;;;;;5075111;28;20161;-47
2022/06/25 01:27:36;;;;;;;38.05;34.15;;;16.30;99.90;;;;;;5075096;28;20040;-48
2022/06/25 01:30:03;;;;;;;37.72;33.95;;;16.40;99.90;;;;;;5074740;28;20051;-47
2022/06/25 01:32:29;;;;;;;36.42;32.53;;;16.20;99.90;;;;;;5075445;28;20039;-45
2022/06/25 01:34:55;;;;;;;37.70;33.97;;;18.40;99.90;;;;;;5075464;28;20541;-46
2022/06/25 01:37:21;;;;;;;36.47;32.60;;;16.20;99.90;;;;;;5073656;28;20032;-45
2022/06/25 01:39:52;;;;;;;37.15;33.35;;;16.50;99.90;;;;;;5073401;28;20036;-47
2022/06/25 01:45:03;;;;;;;35.33;31.67;;;16.40;99.90;;;;;;5073752;28;20087;-46
2022/06/25 01:47:28;;;;;;;33.05;29.67;;;16.40;99.90;;;;;;5074557;28;20199;-45
2022/06/25 01:49:54;;;;;;;34.00;30.52;;;16.00;99.90;;;;;;5074180;28;20283;-47
2022/06/25 01:52:20;;;;;;;35.67;31.95;;;18.40;99.90;;;;;;5075340;28;20044;-48
2022/06/25 01:54:45;;;;;;;34.30;31.00;;;16.30;99.90;;;;;;5073922;28;20044;-47
2022/06/25 01:57:11;;;;;;;33.08;29.63;;;16.20;99.90;;;;;;5074517;28;20047;-43
2022/06/25 01:59:37;;;;;;;32.25;28.95;;;18.60;99.90;;;;;;5074421;28;20046;-48
2022/06/25 02:02:02;;;;;;;30.50;27.55;;;16.80;99.90;;;;;;5074072;28;20036;-48
2022/06/25 02:04:28;;;;;;;31.25;28.25;;;16.30;99.90;;;;;;5074376;28;20119;-46
2022/06/25 02:06:54;;;;;;;32.67;29.27;;;16.10;99.90;;;;;;5073831;28;20036;-47
2022/06/25 02:09:19;;;;;;;33.63;30.10;;;16.00;99.90;;;;;;5073597;28;20044;-43
2022/06/25 02:11:45;;;;;;;32.08;28.67;;;16.00;99.90;;;;;;5073831;28;20502;-45
2022/06/25 02:14:11;;;;;;;32.97;29.58;;;18.40;99.90;;;;;;5074357;28;20098;-46
2022/06/25 02:16:36;;;;;;;31.80;28.38;;;16.90;99.90;;;;;;5074418;28;20630;-44
2022/06/25 02:19:02;;;;;;;33.55;30.02;;;16.10;99.90;;;;;;5074084;28;20101;-48
2022/06/25 02:21:28;;;;;;;37.38;30.77;;;15.90;99.90;;;;;;5074529;28;20039;-46
2022/06/25 02:23:53;;;;;;;31.58;28.40;;;16.00;99.90;;;;;;5072932;28;20044;-45
2022/06/25 02:26:19;;;;;;;28.98;25.75;;;17.00;99.90;;;;;;5072962;28;20301;-46
2022/06/25 02:28:46;;;;;;;28.70;25.73;;;17.00;99.90;;;;;;5071979;28;20170;-47
2022/06/25 02:31:12;;;;;;;29.67;26.75;;;17.10;99.90;;;;;;5072352;28;20195;-45
2022/06/25 02:33:38;;;;;;;31.25;28.05;;;16.00;99.90;;;;;;5073221;28;20105;-47
2022/06/25 02:36:04;;;;;;;28.13;25.42;;;16.10;99.90;;;;;;5073384;28;20119;-45
2022/06/25 02:38:30;;;;;;;30.15;27.13;;;16.00;99.90;;;;;;5074230;28;20035;-47
2022/06/25 02:40:56;;;;;;;29.52;25.83;;;15.80;99.90;;;;;;5074213;28;20634;-45
2022/06/25 02:43:23;;;;;;;28.67;25.73;;;15.90;99.90;;;;;;5074676;28;20143;-45
2022/06/25 02:45:51;;;;;;;29.20;26.25;;;15.80;99.90;;;;;;5073935;28;20564;-47
2022/06/25 02:48:17;;;;;;;27.00;24.40;;;15.80;99.90;;;;;;5074501;28;20051;-43
2022/06/25 02:50:43;;;;;;;29.35;26.35;;;16.20;99.90;;;;;;5074344;28;20036;-47
2022/06/25 02:53:10;;;;;;;28.90;25.40;;;16.00;99.90;;;;;;5074125;28;20040;-45
2022/06/25 03:01:07;;;;;;;28.00;25.05;;;17.90;99.90;;;;;;5073594;28;20047;-46
2022/06/25 03:03:32;;;;;;;27.88;24.98;;;16.80;99.90;;;;;;5071585;28;20040;-43
2022/06/25 03:05:58;;;;;;;27.90;24.85;;;16.70;99.90;;;;;;5072439;28;20108;-43
2022/06/25 03:08:27;;;;;;;27.67;24.75;;;15.60;99.90;;;;;;5072403;28;20090;-43
2022/06/25 03:10:53;;;;;;;28.42;25.52;;;16.20;99.90;;;;;;5073067;28;20036;-44
2022/06/25 03:13:19;;;;;;;25.83;23.20;;;15.50;99.90;;;;;;5072620;28;20108;-47
2022/06/25 03:15:45;;;;;;;25.80;23.20;;;15.50;99.90;;;;;;5072730;28;20044;-46
2022/06/25 03:18:11;;;;;;;25.40;22.85;;;15.50;99.90;;;;;;5073847;28;20122;-46
2022/06/25 03:20:37;;;;;;;28.30;21.70;;;15.70;99.90;;;;;;5073235;28;20065;-47
2022/06/25 03:23:02;;;;;;;24.88;20.98;;;15.40;99.90;;;;;;5071812;28;20516;-45
2022/06/25 03:25:28;;;;;;;23.38;20.77;;;16.20;99.90;;;;;;5072578;28;20051;-47
2022/06/25 03:27:54;;;;;;;22.00;19.70;;;15.50;99.90;;;;;;5076991;28;20032;-44
2022/06/25 03:30:21;;;;;;;26.25;23.42;;;17.10;99.90;;;;;;5074699;28;20377;-43
2022/06/25 03:32:48;;;;;;;24.63;22.08;;;15.60;99.90;;;;;;5076267;28;20089;-43
2022/06/25 03:35:14;;;;;;;26.17;22.40;;;15.40;99.90;;;;;;5076083;28;20337;-47
2022/06/25 03:37:39;;;;;;;23.45;20.88;;;16.10;99.90;;;;;;5075793;28;20035;-43
2022/06/25 03:40:05;;;;;;;25.90;22.50;;;15.50;99.90;;;;;;5075971;28;20571;-43
2022/06/25 03:42:31;;;;;;;25.55;20.48;;;15.60;99.90;;;;;;5075609;28;20396;-45
2022/06/25 03:44:57;;;;;;;22.70;20.17;;;16.40;99.90;;;;;;5076085;28;20067;-44
2022/06/25 03:47:22;;;;;;;22.08;19.50;;;16.40;99.90;;;;;;5076253;28;20413;-47
2022/06/25 03:49:48;;;;;;;22.60;20.17;;;15.50;99.90;;;;;;5074439;28;20447;-43
2022/06/25 03:52:15;;;;;;;24.40;21.70;;;16.30;99.90;;;;;;5076103;28;20114;-47
2022/06/25 03:54:44;;;;;;;24.25;20.60;;;15.80;99.90;;;;;;5075708;28;20083;-45
2022/06/25 03:57:09;;;;;;;23.13;19.83;;;15.60;99.90;;;;;;5076650;28;20036;-43
2022/06/25 03:59:35;;;;;;;21.35;19.27;;;16.20;99.90;;;;;;5077659;28;20048;-46
2022/06/25 04:02:02;;;;;;;22.75;20.35;;;15.50;99.90;;;;;;5076797;28;20121;-47
2022/06/25 04:04:30;;;;;;;21.17;19.17;;;15.90;99.90;;;;;;5076552;28;20519;-47
2022/06/25 04:06:56;;;;;;;21.60;18.42;;;15.70;99.90;;;;;;5076687;28;20047;-46
2022/06/25 04:09:21;;;;;;;18.77;16.55;;;15.60;99.90;;;;;;5076785;28;20066;-47
2022/06/25 04:11:49;;;;;;;21.10;17.67;;;15.70;99.90;;;;;;5077561;28;20442;-46
2022/06/25 04:14:15;;;;;;;20.05;17.85;;;15.60;99.90;;;;;;5077073;28;20109;-46
2022/06/25 04:16:40;;;;;;;19.50;17.50;;;16.90;99.90;;;;;;5076581;28;20625;-46
2022/06/25 04:19:08;;;;;;;18.17;16.38;;;15.80;99.90;;;;;;5076240;28;20120;-46
2022/06/25 04:21:34;;;;;;;17.50;15.68;;;15.90;99.90;;;;;;5077125;28;20036;-46
2022/06/25 04:24:00;;;;;;;17.65;15.32;;;15.90;99.90;;;;;;5074095;28;20040;-47
2022/06/25 04:26:26;;;;;;;16.35;14.75;;;16.60;99.90;;;;;;5075812;28;20582;-45
2022/06/25 04:29:04;;;;;;;18.02;13.73;;;16.10;99.90;;;;;;5073414;28;20408;-46
2022/06/25 04:31:33;;;;;;;17.80;14.40;;;16.30;99.90;;;;;;5075105;28;20036;-47
2022/06/25 04:34:00;;;;;;;15.88;13.68;;;16.40;99.90;;;;;;5075283;28;20484;-46
2022/06/25 04:36:26;;;;;;;15.23;12.88;;;16.30;99.90;;;;;;5075867;28;20056;-43
2022/06/25 04:38:51;;;;;;;15.05;13.32;;;16.40;99.90;;;;;;5075253;28;20151;-44
2022/06/25 04:41:17;;;;;;;13.30;11.95;;;16.60;99.90;;;;;;5076164;28;20038;-45
2022/06/25 04:43:44;;;;;;;12.93;11.63;;;18.50;99.90;;;;;;5074657;28;20070;-43
2022/06/25 04:46:09;;;;;;;12.55;11.20;;;16.90;99.90;;;;;;5073934;28;20147;-47
2022/06/25 04:48:35;;;;;;;12.80;10.68;;;16.90;99.90;;;;;;5074472;28;21899;-43
2022/06/25 04:51:01;;;;;;;13.10;11.73;;;16.80;99.90;;;;;;5075247;28;20054;-45
2022/06/25 04:53:27;;;;;;;11.90;10.32;;;17.00;99.90;;;;;;5076001;28;20072;-44
2022/06/25 04:55:52;;;;;;;12.50;10.52;;;17.10;99.90;;;;;;5074986;28;20039;-44
2022/06/25 04:58:18;;;;;;;13.18;10.27;;;17.20;99.90;;;;;;5074891;28;20059;-42
2022/06/25 05:00:44;;;;;;;12.63;10.48;;;17.20;99.90;;;;;;5075179;28;20036;-46
2022/06/25 05:03:10;;;;;;;14.30;10.10;;;17.40;99.90;;;;;;5074555;28;20036;-42
2022/06/25 05:05:36;;;;;;;15.48;9.85;;;17.40;99.90;;;;;;5074923;28;20050;-44
2022/06/25 05:08:02;;;;;;;12.40;10.02;;;17.30;99.90;;;;;;5074305;28;20051;-45
2022/06/25 05:10:28;;;;;;;11.85;10.30;;;17.50;99.90;;;;;;5074740;28;20676;-46
2022/06/25 05:13:12;;;;;;;11.75;10.40;;;17.60;99.90;;;;;;5073935;28;20144;-42
2022/06/25 05:15:42;;;;;;;11.63;10.43;;;18.10;99.90;;;;;;5073442;28;20832;-47
2022/06/25 05:18:11;;;;;;;11.18;10.00;;;17.70;99.90;;;;;;5073789;28;20075;-46
2022/06/25 05:20:41;;;;;;;11.90;10.70;;;17.50;99.90;;;;;;5075817;28;20051;-47
2022/06/25 05:23:09;;;;;;;14.57;11.00;;;19.90;99.90;;;;;;5075737;28;20442;-44
2022/06/25 05:25:35;;;;;;;14.27;10.98;;;17.70;99.90;;;;;;5075601;28;20040;-46
2022/06/25 05:28:00;;;;;;;17.75;10.90;;;19.90;99.90;;;;;;5074490;28;20136;-47
2022/06/25 05:30:26;;;;;;;11.68;10.35;;;17.90;99.90;;;;;;5074919;28;20044;-46
2022/06/25 05:32:52;;;;;;;12.68;10.55;;;17.80;99.90;;;;;;5076106;28;20136;-47
2022/06/25 05:35:18;;;;;;;10.95;9.73;;;18.00;99.90;;;;;;5075094;28;20122;-46
2022/06/25 05:37:44;;;;;;;11.93;10.65;;;18.10;99.90;;;;;;5075170;28;20051;-47
2022/06/25 05:40:10;;;;;;;14.52;9.50;;;18.00;99.90;;;;;;5074885;28;20047;-47
2022/06/25 05:42:36;;;;;;;11.32;9.68;;;18.10;99.90;;;;;;5075337;28;20040;-46
2022/06/25 05:45:03;;;;;;;10.50;8.82;;;18.20;99.90;;;;;;5074592;28;20799;-47
2022/06/25 05:47:29;;;;;;;9.05;7.93;;;18.40;99.90;;;;;;5073656;28;20044;-47
2022/06/25 05:49:55;;;;;;;11.80;8.65;;;18.30;99.90;;;;;;5072868;28;20830;-47
2022/06/25 05:52:20;;;;;;;12.77;9.52;;;18.50;99.90;;;;;;5074717;28;20097;-47
2022/06/25 05:54:46;;;;;;;12.02;9.07;;;18.60;99.90;;;;;;5073023;28;20078;-47
2022/06/25 05:57:12;;;;;;;10.90;9.32;;;18.50;99.90;;;;;;5072748;28;20071;-46
2022/06/25 05:59:37;;;;;;;10.88;9.00;;;18.80;99.90;;;;;;5073426;28;21471;-44
2022/06/25 06:02:03;;;;;;;13.80;8.25;;;18.80;99.90;;;;;;5073175;28;20252;-45
2022/06/25 06:04:29;;;;;;;9.07;7.22;;;19.00;99.90;;;;;;5073037;28;20087;-43
2022/06/25 06:06:55;;;;;;;10.73;7.95;;;18.90;99.90;;;;;;5072620;28;20071;-46
2022/06/25 06:09:20;;;;;;;11.32;8.00;;;18.90;99.90;;;;;;5073101;28;20462;-46
2022/06/25 06:11:46;;;;;;;10.50;7.00;;;19.80;99.90;;;;;;5072868;28;20063;-46
2022/06/25 06:14:12;;;;;;;9.07;6.75;;;19.00;99.90;;;;;;5072541;28;20036;-47
2022/06/25 06:16:38;;;;;;;9.02;7.47;;;19.10;99.90;;;;;;5073491;28;20032;-45
2022/06/25 06:19:03;;;;;;;11.68;7.50;;;19.40;99.90;;;;;;5072484;28;20129;-44
2022/06/25 06:21:29;;;;;;;8.77;6.93;;;20.10;99.90;;;;;;5072960;28;20500;-45
2022/06/25 06:23:54;;;;;;;9.35;7.10;;;20.70;99.90;;;;;;5072744;28;20058;-46
2022/06/25 06:26:22;;;;;;;9.45;7.03;;;21.00;99.90;;;;;;5071980;28;20097;-44
2022/06/25 06:28:48;;;;;;;10.73;7.20;;;21.00;99.90;;;;;;5073195;28;20046;-47
2022/06/25 06:31:14;;;;;;;9.48;6.72;;;21.00;99.90;;;;;;5073390;28;20408;-44
2022/06/25 06:33:39;;;;;;;11.20;6.72;;;21.10;99.90;;;;;;5070913;28;20040;-46
2022/06/25 06:36:05;;;;;;;10.43;6.75;;;20.70;99.90;;;;;;5072221;28;20044;-47
2022/06/25 06:38:31;;;;;;;7.45;6.00;;;22.80;99.90;;;;;;5073128;28;20350;-45
2022/06/25 06:40:58;;;;;;;12.13;6.55;;;23.10;99.90;;;;;;5073104;28;20458;-43
2022/06/25 06:43:24;;;;;;;11.43;6.40;;;20.80;99.90;;;;;;5073975;28;20086;-44
2022/06/25 06:45:50;;;;;;;12.70;6.40;;;20.90;99.90;;;;;;5072983;28;20126;-45
2022/06/25 06:48:19;;;;;;;10.35;6.70;;;21.00;99.90;;;;;;5073807;28;20110;-44
2022/06/25 06:50:45;;;;;;;10.77;6.05;;;21.40;99.90;;;;;;5073702;28;20219;-46
2022/06/25 06:53:10;;;;;;;9.65;5.68;;;21.10;99.90;;;;;;5073025;28;20044;-44
2022/06/25 06:55:36;;;;;;;7.20;5.03;;;21.60;99.90;;;;;;5072368;28;20047;-44
2022/06/25 06:58:01;;;;;;;13.55;6.30;;;22.10;99.90;;;;;;5073897;28;20043;-45
2022/06/25 07:00:27;;;;;;;8.95;5.35;;;24.40;99.90;;;;;;5075756;28;20051;-47
2022/06/25 07:02:53;;;;;;;8.07;4.55;;;22.30;99.90;;;;;;5077116;28;20032;-45
2022/06/25 07:05:19;;;;;;;12.50;4.25;;;22.40;99.90;;;;;;5076974;28;20035;-43
2022/06/25 07:07:47;;;;;;;5.97;4.60;;;22.40;99.90;;;;;;5076179;28;20039;-45
2022/06/25 07:10:13;;;;;;;9.20;5.03;;;22.80;99.90;;;;;;5074848;28;20048;-47
2022/06/25 07:12:39;;;;;;;8.15;4.35;;;23.30;99.90;;;;;;5075122;28;20040;-47
2022/06/25 07:15:05;;;;;;;10.15;4.70;;;23.70;99.90;;;;;;5074858;28;20453;-47
2022/06/25 07:17:31;;;;;;;12.50;4.65;;;23.80;99.90;;;;;;5076075;28;20148;-46
2022/06/25 07:20:00;;;;;;;7.22;4.60;;;24.10;99.90;;;;;;5075456;28;20777;-44
2022/06/25 07:22:26;;;;;;;6.10;3.90;;;24.60;99.90;;;;;;5076574;28;20047;-46
2022/06/25 07:24:52;;;;;;;6.47;3.47;;;26.80;99.90;;;;;;5074745;28;20048;-44
2022/06/25 07:27:18;;;;;;;6.78;3.85;;;25.30;99.90;;;;;;5075708;28;20040;-45
2022/06/25 07:29:44;;;;;;;8.77;3.65;;;25.50;99.90;;;;;;5073208;28;20657;-47
2022/06/25 07:32:10;;;;;;;7.10;3.00;;;25.70;99.90;;;;;;5076264;28;20048;-45
2022/06/25 07:34:37;;;;;;;7.72;2.97;;;23.70;99.90;;;;;;5076222;28;20206;-47
2022/06/25 07:37:04;;;;;;;7.38;3.10;;;26.50;99.90;;;;;;5075377;28;20032;-48
2022/06/25 07:39:30;;;;;;;8.45;3.25;;;27.10;99.90;;;;;;5075594;28;20032;-48
2022/06/25 07:41:55;;;;;;;6.53;2.70;;;27.60;99.90;;;;;;5075195;28;20036;-47
2022/06/25 07:44:21;;;;;;;9.43;3.20;;;27.90;99.90;;;;;;5076077;28;20042;-44
2022/06/25 07:46:47;;;;;;;5.97;2.80;;;28.00;99.90;;;;;;5074917;28;20367;-48
2022/06/25 07:49:13;;;;;;;4.75;2.20;;;28.10;99.90;;;;;;5075970;28;20044;-48
2022/06/25 07:51:59;;;;;;;6.90;2.40;;;28.10;99.90;;;;;;5076353;28;20084;-49
2022/06/25 07:54:28;;;;;;;5.57;2.00;;;28.10;99.90;;;;;;5076498;28;20079;-46
2022/06/25 07:56:54;;;;;;;7.55;1.98;;;28.70;99.90;;;;;;5076066;28;20052;-47
2022/06/25 07:59:21;;;;;;;6.57;2.53;;;28.70;99.90;;;;;;5074841;28;20032;-50
2022/06/25 08:01:47;;;;;;;11.30;2.10;;;28.50;99.90;;;;;;5076892;28;20048;-49
2022/06/25 08:04:13;;;;;;;5.60;1.98;;;28.80;99.90;;;;;;5075930;28;20689;-50
2022/06/25 08:06:41;;;;;;;6.18;2.38;;;28.60;99.90;;;;;;5074214;28;20040;-47
2022/06/25 08:09:07;;;;;;;6.35;2.00;;;28.20;99.90;;;;;;5076000;28;20055;-47
2022/06/25 08:11:32;;;;;;;7.13;2.20;;;28.70;99.90;;;;;;5075882;28;20090;-45
2022/06/25 08:14:00;;;;;;;8.23;2.60;;;28.80;99.90;;;;;;5074775;28;20044;-48
2022/06/25 08:16:26;;;;;;;6.80;2.75;;;29.30;99.90;;;;;;5074886;28;20039;-48
2022/06/25 08:18:52;;;;;;;5.40;2.10;;;29.70;99.90;;;;;;5074986;28;20097;-47
2022/06/25 08:21:20;;;;;;;6.22;2.60;;;29.00;99.90;;;;;;5075132;28;20044;-49
2022/06/25 08:23:46;;;;;;;7.80;2.70;;;28.60;99.90;;;;;;5076653;28;20040;-46
2022/06/25 08:26:13;;;;;;;7.50;2.60;;;28.90;99.90;;;;;;5075268;28;20454;-49
2022/06/25 08:28:38;;;;;;;11.38;2.72;;;28.30;99.90;;;;;;5074896;28;20039;-47
2022/06/25 08:31:04;;;;;;;6.10;2.20;;;27.50;99.90;;;;;;5074450;28;20035;-47
2022/06/25 08:33:30;;;;;;;5.07;2.40;;;26.50;99.90;;;;;;5072968;28;20058;-47
2022/06/25 08:35:56;;;;;;;7.43;2.92;;;25.70;99.90;;;;;;5075352;28;20036;-46
2022/06/25 08:38:22;;;;;;;9.73;3.28;;;25.30;99.90;;;;;;5075453;28;20165;-47
2022/06/25 08:40:48;;;;;;;6.10;2.42;;;25.00;99.90;;;;;;5074276;28;20074;-49
2022/06/25 08:43:14;;;;;;;9.48;2.60;;;25.40;99.90;;;;;;5074592;28;20059;-49
2022/06/25 08:45:40;;;;;;;7.72;2.40;;;25.90;99.90;;;;;;5074394;28;20075;-49
2022/06/25 08:48:20;;;;;;;5.63;2.42;;;26.10;99.90;;;;;;5072756;28;20036;-45
2022/06/25 08:50:48;;;;;;;4.93;2.17;;;26.40;99.90;;;;;;5074715;28;20588;-46
2022/06/25 08:53:15;;;;;;;6.75;2.38;;;26.00;99.90;;;;;;5074732;28;20048;-48
2022/06/25 08:55:44;;;;;;;8.82;2.83;;;25.30;99.90;;;;;;5073755;28;20667;-48
2022/06/25 08:58:11;;;;;;;6.85;2.42;;;25.40;99.90;;;;;;5073680;28;20020;-49
2022/06/25 09:00:41;;;;;;;4.95;2.35;;;25.40;99.90;;;;;;5072711;28;20040;-46
2022/06/25 09:03:10;;;;;;;10.93;2.80;;;25.30;99.90;;;;;;5073318;28;20180;-48
2022/06/25 09:05:40;;;;;;;6.93;2.70;;;24.90;99.90;;;;;;5074496;28;20443;-47
2022/06/25 09:08:08;;;;;;;7.28;3.60;;;24.70;99.90;;;;;;5076308;28;20412;-48
2022/06/25 09:10:37;;;;;;;5.68;2.90;;;24.40;99.90;;;;;;5076271;28;20408;-47
2022/06/25 09:13:08;;;;;;;8.00;2.67;;;24.10;99.90;;;;;;5074013;28;20051;-48
2022/06/25 09:15:39;;;;;;;6.47;2.75;;;24.50;99.90;;;;;;5076031;28;20047;-49
2022/06/25 09:18:10;;;;;;;10.80;2.58;;;24.00;99.90;;;;;;5074761;28;20259;-48
2022/06/25 09:20:55;;;;;;;6.15;2.17;;;24.00;99.90;;;;;;5074618;28;20488;-48
2022/06/25 09:23:21;;;;;;;7.13;2.15;;;24.30;99.90;;;;;;5075383;28;20501;-49
2022/06/25 09:26:08;;;;;;;6.22;1.90;;;27.00;99.90;;;;;;5074499;28;20036;-44
2022/06/25 09:28:42;;;;;;;5.15;2.00;;;25.00;99.90;;;;;;5074628;28;20083;-48
2022/06/25 09:31:10;;;;;;;6.13;2.08;;;25.20;99.90;;;;;;5075545;28;20040;-50
2022/06/25 09:33:38;;;;;;;5.38;2.25;;;25.40;99.90;;;;;;5073342;28;20040;-49
2022/06/25 09:36:07;;;;;;;7.05;2.20;;;25.50;99.90;;;;;;5073501;28;20505;-46
2022/06/25 09:38:33;;;;;;;3.65;1.77;;;25.30;99.90;;;;;;5072846;28;20405;-48
2022/06/25 09:41:00;;;;;;;5.22;1.95;;;25.70;99.90;;;;;;5074374;28;20036;-48
2022/06/25 09:43:27;;;;;;;5.72;2.20;;;24.90;99.90;;;;;;5072871;28;20063;-48
2022/06/25 09:45:55;;;;;;;7.65;2.00;;;25.00;99.90;;;;;;5072657;28;20568;-49
2022/06/25 09:48:20;;;;;;;7.47;1.70;;;24.70;99.90;;;;;;5074122;28;20040;-49
2022/06/25 09:51:11;;;;;;;5.63;1.67;;;24.50;99.90;;;;;;5073320;28;20050;-50
2022/06/25 09:54:00;;;;;;;2.95;1.50;;;24.60;99.90;;;;;;5012162;28;20045;-49
2022/06/25 09:56:33;;;;;;;7.32;1.45;;;24.40;99.90;;;;;;5011454;28;20736;-45
2022/06/25 09:59:00;;;;;;;6.68;1.95;;;24.70;99.90;;;;;;5009918;28;20216;-44
2022/06/25 10:01:32;;;;;;;6.60;1.58;;;25.00;99.90;;;;;;5010750;28;20128;-47
2022/06/25 10:04:03;;;;;;;8.98;1.30;;;25.20;99.90;;;;;;5010308;28;20537;-48
2022/06/25 10:06:36;;;;;;;5.28;1.30;;;25.40;99.90;;;;;;5010455;28;20120;-47
2022/06/25 10:09:04;;;;;;;3.53;1.55;;;25.60;99.90;;;;;;5009906;28;20045;-47
2022/06/25 10:11:31;;;;;;;3.65;1.30;;;25.50;99.90;;;;;;5010837;28;20060;-47
2022/06/25 10:13:57;;;;;;;3.63;1.30;;;25.10;99.90;;;;;;4993279;28;20616;-49
2022/06/25 10:16:28;;;;;;;13.20;3.42;;;25.80;99.90;;;;;;5010155;28;20078;-44
2022/06/25 10:18:54;;;;;;;56.28;13.27;;;24.40;99.90;;;;;;5008535;28;20718;-48
2022/06/25 10:21:22;;;;;;;58.08;14.05;;;24.40;99.90;;;;;;5010210;28;20652;-46
2022/06/25 10:23:54;;;;;;;39.03;9.85;;;24.20;99.90;;;;;;5011579;28;20071;-47
2022/06/25 10:26:21;;;;;;;18.27;4.70;;;24.00;99.90;;;;;;5010188;28;20660;-48
2022/06/25 10:28:47;;;;;;;22.15;5.63;;;23.90;99.90;;;;;;5008677;28;20042;-45
2022/06/25 10:31:16;;;;;;;16.95;4.82;;;23.60;99.90;;;;;;5055764;28;20059;-47
2022/06/25 10:34:02;;;;;;;7.07;2.40;;;23.50;99.90;;;;;;5072427;28;20063;-46
2022/06/25 10:36:42;;;;;;;12.88;2.55;;;24.00;99.90;;;;;;5072846;28;20569;-45
2022/06/25 10:39:43;;;;;;;3.28;1.40;;;23.90;99.90;;;;;;5073487;28;20047;-44
2022/06/25 10:45:00;;;;;;;5.03;1.25;;;24.20;99.90;;;;;;4990396;28;20065;-48
2022/06/25 10:47:43;;;;;;;2.63;1.10;;;24.70;99.90;;;;;;4991480;28;20120;-48
2022/06/25 10:50:44;;;;;;;5.57;1.40;;;24.70;99.90;;;;;;4991184;28;20046;-49
2022/06/25 10:53:09;;;;;;;3.97;1.30;;;25.30;99.90;;;;;;4955231;28;20137;-49
2022/06/25 10:55:47;;;;;;;2.85;1.17;;;25.10;99.90;;;;;;4956741;28;21423;-48
2022/06/25 10:58:18;;;;;;;3.65;1.15;;;25.50;99.90;;;;;;4954935;28;20051;-46
2022/06/25 11:00:58;;;;;;;3.75;1.08;;;25.70;99.90;;;;;;4952768;28;20121;-48
2022/06/25 11:03:27;;;;;;;1.87;0.73;;;25.70;99.90;;;;;;4954065;28;20058;-48
2022/06/25 11:05:54;;;;;;;5.05;0.90;;;25.70;99.90;;;;;;4953152;28;20049;-47
2022/06/25 11:08:23;;;;;;;3.13;0.98;;;25.50;99.90;;;;;;4950948;28;20216;-49
2022/06/25 11:10:49;;;;;;;2.78;1.10;;;25.20;99.90;;;;;;4952279;28;20069;-48
2022/06/25 11:13:15;;;;;;;4.05;1.10;;;25.50;99.90;;;;;;4951072;28;20539;-46
2022/06/25 11:15:44;;;;;;;2.42;0.95;;;25.40;99.90;;;;;;4973292;28;20565;-46
2022/06/25 11:18:13;;;;;;;2.72;1.10;;;25.20;99.90;;;;;;5028544;28;20037;-47
2022/06/25 11:20:39;;;;;;;5.07;1.13;;;25.40;99.90;;;;;;5012737;28;20060;-47
2022/06/25 11:23:05;;;;;;;3.35;1.20;;;25.40;99.90;;;;;;5010851;28;20049;-44
2022/06/25 11:28:48;;;;;;;7.80;1.30;;;25.80;99.90;;;;;;5009262;28;20068;-48
2022/06/25 11:31:15;;;;;;;4.53;1.38;;;26.30;99.90;;;;;;5028942;28;20041;-47
2022/06/25 11:33:43;;;;;;;2.72;1.10;;;26.00;99.90;;;;;;5028713;28;20056;-46
2022/06/25 11:36:12;;;;;;;4.85;1.20;;;25.80;99.90;;;;;;5027551;28;20060;-49
2022/06/25 11:38:40;;;;;;;3.28;1.10;;;25.60;99.90;;;;;;5028584;28;20067;-44
2022/06/25 11:41:06;;;;;;;8.65;1.25;;;25.40;99.90;;;;;;5027719;28;20044;-47
2022/06/25 11:43:34;;;;;;;3.45;1.30;;;25.30;99.90;;;;;;5026937;28;20056;-44
2022/06/25 11:46:01;;;;;;;3.90;1.25;;;24.90;99.90;;;;;;5025670;28;20044;-47
2022/06/25 11:48:28;;;;;;;3.95;1.40;;;24.50;99.90;;;;;;5012046;28;20053;-44
2022/06/25 11:51:02;;;;;;;5.95;1.10;;;24.50;99.90;;;;;;5011979;28;20052;-48
2022/06/25 11:53:28;;;;;;;5.78;1.45;;;24.00;99.90;;;;;;5034051;28;20072;-47
2022/06/25 11:56:02;;;;;;;5.30;1.42;;;23.80;99.90;;;;;;5033794;28;20071;-45
2022/06/25 11:58:33;;;;;;;5.90;1.42;;;23.50;99.90;;;;;;5032395;28;20061;-47
2022/06/25 12:01:01;;;;;;;4.38;1.50;;;23.30;99.90;;;;;;5032184;28;20080;-48
2022/06/25 12:03:28;;;;;;;4.78;1.42;;;23.10;99.90;;;;;;5032653;28;20049;-46
2022/06/25 12:05:56;;;;;;;4.40;1.70;;;22.90;99.90;;;;;;5070906;28;20052;-44
2022/06/25 12:08:23;;;;;;;6.43;1.92;;;22.50;99.90;;;;;;5072812;28;20382;-47
2022/06/25 12:10:51;;;;;;;4.60;2.20;;;22.30;99.90;;;;;;5072835;28;20059;-46
2022/06/25 12:13:17;;;;;;;5.88;1.55;;;22.30;99.90;;;;;;5072551;28;20052;-48
2022/06/25 12:15:43;;;;;;;4.82;1.65;;;22.20;99.90;;;;;;5071515;28;20127;-43
2022/06/25 12:18:08;;;;;;;5.40;1.60;;;23.40;99.90;;;;;;5074607;28;20036;-47
2022/06/25 12:20:35;;;;;;;6.35;1.55;;;22.20;99.90;;;;;;5075065;28;20052;-46
2022/06/25 12:23:03;;;;;;;8.80;1.80;;;21.90;99.90;;;;;;5075440;28;20039;-48
2022/06/25 12:25:31;;;;;;;3.92;1.55;;;21.70;99.90;;;;;;5076811;28;20067;-45
2022/06/25 12:27:58;;;;;;;3.60;1.50;;;21.60;99.90;;;;;;5074900;28;20050;-43
2022/06/25 12:30:29;;;;;;;5.38;1.63;;;19.70;99.90;;;;;;5074441;28;20126;-47
2022/06/25 12:33:02;;;;;;;6.82;1.80;;;21.60;99.90;;;;;;5073660;28;20040;-45
2022/06/25 12:35:30;;;;;;;4.38;1.70;;;21.60;99.90;;;;;;5075215;28;20044;-46
2022/06/25 12:38:05;;;;;;;4.68;1.50;;;21.60;99.90;;;;;;5073818;28;20051;-47
2022/06/25 12:40:46;;;;;;;6.30;1.83;;;21.50;99.90;;;;;;5074586;28;20052;-45
2022/06/25 12:43:13;;;;;;;5.13;1.90;;;21.60;99.90;;;;;;5072681;28;20334;-48
2022/06/25 12:45:42;;;;;;;6.72;2.20;;;21.30;99.90;;;;;;5074454;28;20048;-46
2022/06/25 12:48:10;;;;;;;7.25;1.90;;;21.50;99.90;;;;;;5073468;28;20517;-44
2022/06/25 12:50:36;;;;;;;5.07;2.03;;;21.20;99.90;;;;;;5073251;28;20962;-46
2022/06/25 12:53:11;;;;;;;5.78;2.00;;;22.60;99.90;;;;;;5074714;28;20032;-43
2022/06/25 12:55:38;;;;;;;9.65;3.00;;;21.40;99.90;;;;;;5074758;28;20770;-46
2022/06/25 12:58:15;;;;;;;6.53;3.13;;;21.30;99.90;;;;;;5071984;28;20050;-44